Terminal Aerodrome Forecast
Issued by NWS Sioux Falls, SD

Home | Current Version | Previous Version | Text Only | Print | Product List | Glossary On
Versions: 1 2 3 4 5 6 7 8 9 10 11 12 13 14 15 16 17 18 19 20 21 22 23 24 25 26 27 28 29 30 31 32
000
FTUS43 KFSD 212341
TAFSUX
TAF
KSUX 212341Z 2200/2224 17015G22KT P6SM OVC009
     FM220800 15015G22KT 3SM -RA BR OVC007
     FM221200 13009KT 4SM -RA BR OVC005
     FM221900 33008KT 6SM -RA OVC008=

USA.gov is the U.S. government's official web portal to all federal, state and local government web resources and services.